powered by Meteolive.it
Dati meteo   Attuali  Passati Ogni 3 ore 7 Giorni 15 Giorni Avvisi Meteo Mappe meteo
Palermo / Punta Raisi, Italy
Alba: 6:52 AM UTC1
Tramonto: 5:50 PM UTC1
 Lat: 38.17N, Lon: 13.08E
ICAO Usato: LICJ
Condizioni Meteo Attuali Aggiornate: 21.02.2017 alle 17:20 LT
Quasi Sereno
Quasi Sereno
N/D
N/D
Temp: 14°C
Umidita': 63%
Direz/Vel. Vento: N 09 KTS
Pressione: 1023 hPa
Punto di rugiada: 7°C
Temperatura percepita: 14°C
Visibilitą: >10 KM (ottima)
Temperatura percepita in
presenza di vento (Wind Chill)
:
13°C
T. max (ultime 24 ore): 14°C
T. min (ultime 24 ore): 10°C


METAR ORIGINALE
LICJ 211520Z 01009KT CAVOK 14/07 Q1023